Nearby METAR Reports

This page may be slow to load as it queries the National Weather Service for data.

KBIS - Bismarck, North Dakota, USA
Distance from station: S 10mi, 15km
Updated: Thu, 17-Jan-2019 1:04pm CST
Overcast
Overcast
 Wind from NE
Wind: NE 9 mph , 15 km/h
Temperature: 19°F , -7°C
Wind Chill: 8°F , -13°C
Dew Point: 14°F , -10°C
Humidity: 79%
Barometer: 30.10 inHg , 1019.3 hPa
Clouds: Overcast
Visibility: 10 miles , 16 km
Cloud details: Overcast 1000 ft
2019/01/17 19:04 KBIS 171904Z 04008KT 10SM OVC010 M07/M10 A3010 RMK AO2 T10721100
KDIK - Dickinson, North Dakota, USA
Distance from station: W 95mi, 154km
Updated: Thu, 17-Jan-2019 1:07pm CST
Mist, Overcast
Mist, Overcast
 Wind from ENE
Wind: ENE 9 mph , 15 km/h
Temperature: 19°F , -7°C
Wind Chill: 8°F , -13°C
Dew Point: 16°F , -9°C
Humidity: 86%
Barometer: 30.02 inHg , 1016.6 hPa
Summary: Mist
Clouds: Overcast
Visibility: 3/4 mile , 1.2 km
Cloud details: Overcast 300 ft
2019/01/17 19:07 KDIK 171907Z AUTO 07008KT 3/4SM BR OVC003 M07/M09 A3002 RMK AO2 T10721089
 
KISN - Williston, North Dakota, USA
Distance from station: NNW 2mi, 2km
Updated: Thu, 17-Jan-2019 12:52pm CST
Overcast
Overcast
 Wind from NE
Wind: NE 14 mph , 22 km/h
Temperature: 14°F , -10°C
Wind Chill: -1°F , -18°C
Dew Point: 7°F , -14°C
Humidity: 73%
Barometer: 30.12 inHg , 1020 hPa
Clouds: Overcast
Visibility: 10 miles , 16 km
Cloud details: Overcast 2800 ft
2019/01/17 18:52 KISN 171852Z AUTO 04012KT 10SM OVC028 M10/M14 A3012 RMK AO2 SLP241 T11001144
KFAR - Fargo, North Dakota, USA
Distance from station: NNW 4mi, 7km
Updated: Thu, 17-Jan-2019 12:53pm CST
Overcast
Overcast
 Wind from N
Wind: N 8 mph , 13 km/h
Temperature: 9°F , -13°C
Wind Chill: -3°F , -19°C
Dew Point: 1°F , -17°C
Humidity: 72%
Barometer: 30.17 inHg , 1021.7 hPa
Clouds: Overcast
Visibility: 8 miles , 13 km
Cloud details: Partly cloudy 2000 ft
Overcast 3100 ft
2019/01/17 18:53 KFAR 171853Z 35007KT 8SM SCT020 OVC031 M13/M17 A3017 RMK AO2 SNE1754B13E26 SLP242 P0000 T11331167
 
KGFK - Grand Forks, North Dakota, USA
Distance from station: NNW 76mi, 123km
Updated: Thu, 17-Jan-2019 12:53pm CST
Light snow, Overcast
Light snow, Overcast
 Wind from N
Wind: N 12 mph , 19 km/h
Temperature: 7°F , -14°C
Wind Chill: -9°F , -23°C
Dew Point: -0°F , -18°C
Humidity: 72%
Barometer: 30.19 inHg , 1022.4 hPa
Summary: Light Snow
Clouds: Overcast
Visibility: 3 miles , 5 km
Cloud details: Overcast 4300 ft
2019/01/17 18:53 KGFK 171853Z 35010KT 3SM -SN OVC043 M14/M18 A3019 RMK AO2 SFC VIS 4 SLP250 P0000 T11441183
KMOT - Minot, North Dakota, USA
Distance from station: E 109mi, 175km
Updated: Thu, 17-Jan-2019 12:54pm CST
Overcast
Overcast
 Wind from NNW
Wind: NNW 13 mph , 20 km/h
Temperature: 7°F , -14°C
Wind Chill: -9°F , -23°C
Dew Point: -0°F , -18°C
Humidity: 72%
Barometer: 30.15 inHg , 1021 hPa
Clouds: Overcast
Visibility: 10 miles , 16 km
Cloud details: Overcast 8000 ft
2019/01/17 18:54 KMOT 171854Z 34011KT 10SM OVC080 M14/M18 A3015 RMK AO2 SLP251 T11441183